Time;durP1;ratioP1;P1;durP2;ratioP2;P2;SDS_P1;SDS_P2;PMS_P1;PMS_P2;Temp;Humidity;BMP_temperature;BMP_pressure;BME280_temperature;BME280_humidity;BME280_pressure;Samples;Min_cycle;Max_cycle;Signal;HPM_P1;HPM_P2
2022/06/03 00:00:13;;;;;;;17.17;5.00;;;;;;;;;;5053919;28;20486;-68
2022/06/03 00:02:58;;;;;;;17.63;5.73;;;;;;;;;;5053746;28;20448;-68
2022/06/03 00:05:41;;;;;;;18.00;5.90;;;;;;;;;;5043054;28;20455;-67
2022/06/03 00:08:16;;;;;;;18.87;6.07;;;;;;;;;;5054299;28;20448;-67
2022/06/03 00:10:55;;;;;;;21.00;6.10;;;;;;;;;;5053748;28;20450;-67
2022/06/03 00:13:33;;;;;;;18.27;5.60;;;;;;;;;;5053841;28;20479;-67
2022/06/03 00:16:08;;;;;;;17.50;5.40;;;;;;;;;;5053331;28;20494;-67
2022/06/03 00:18:57;;;;;;;19.20;6.70;;;;;;;;;;5053680;28;20447;-68
2022/06/03 00:21:45;;;;;;;15.93;5.77;;;;;;;;;;5053841;28;20455;-68
2022/06/03 00:24:20;;;;;;;20.23;6.37;;;;;;;;;;5051969;28;20996;-67
2022/06/03 00:26:59;;;;;;;17.60;6.03;;;;;;;;;;5053456;28;20475;-67
2022/06/03 00:29:37;;;;;;;18.17;5.53;;;;;;;;;;5053402;28;20961;-67
2022/06/03 00:32:20;;;;;;;18.53;5.83;;;;;;;;;;5053544;28;20432;-67
2022/06/03 00:34:57;;;;;;;19.70;5.50;;;;;;;;;;5052501;28;20471;-67
2022/06/03 00:37:29;;;;;;;22.63;5.87;;;;;;;;;;5053407;28;20535;-67
2022/06/03 00:40:05;;;;;;;20.00;5.80;;;;;;;;;;5053546;28;20794;-67
2022/06/03 00:42:43;;;;;;;19.10;6.00;;;;;;;;;;5053308;28;20447;-67
2022/06/03 00:45:20;;;;;;;17.70;6.00;;;;;;;;;;5052241;28;20443;-67
2022/06/03 00:47:54;;;;;;;18.67;6.00;;;;;;;;;;5053276;28;20444;-67
2022/06/03 00:50:41;;;;;;;19.00;6.20;;;;;;;;;;5053013;28;20455;-68
2022/06/03 00:53:26;;;;;;;23.23;6.10;;;;;;;;;;5052700;28;20444;-67
2022/06/03 00:56:17;;;;;;;22.73;5.47;;;;;;;;;;5052948;28;20483;-68
2022/06/03 00:58:51;;;;;;;17.10;6.13;;;;;;;;;;5047274;28;20983;-67
2022/06/03 01:01:22;;;;;;;17.97;5.87;;;;;;;;;;5052808;28;21003;-67
2022/06/03 01:03:58;;;;;;;21.47;5.37;;;;;;;;;;5052703;28;20447;-67
2022/06/03 01:06:36;;;;;;;19.27;6.23;;;;;;;;;;5053173;28;20462;-68
2022/06/03 01:09:10;;;;;;;19.60;6.10;;;;;;;;;;5052626;28;20859;-68
2022/06/03 01:12:01;;;;;;;20.03;6.27;;;;;;;;;;5052780;28;20432;-67
2022/06/03 01:14:33;;;;;;;22.97;5.80;;;;;;;;;;5052225;28;20464;-67
2022/06/03 01:17:06;;;;;;;20.80;5.90;;;;;;;;;;5052644;28;20480;-67
2022/06/03 01:19:40;;;;;;;21.70;5.87;;;;;;;;;;5052806;28;20535;-67
2022/06/03 01:22:16;;;;;;;24.87;6.17;;;;;;;;;;5052533;28;20443;-68
2022/06/03 01:24:56;;;;;;;17.23;5.57;;;;;;;;;;5052658;28;20821;-67
2022/06/03 01:27:41;;;;;;;22.63;5.80;;;;;;;;;;5052433;28;20811;-67
2022/06/03 01:30:24;;;;;;;17.10;5.50;;;;;;;;;;5052569;28;20450;-68
2022/06/03 01:33:05;;;;;;;16.70;5.47;;;;;;;;;;5051425;28;20444;-67
2022/06/03 01:35:48;;;;;;;24.63;6.03;;;;;;;;;;5052427;28;20577;-68
2022/06/03 01:38:23;;;;;;;16.57;5.73;;;;;;;;;;5052351;28;20440;-68
2022/06/03 01:41:11;;;;;;;15.97;5.30;;;;;;;;;;5052185;28;20440;-68
2022/06/03 01:43:46;;;;;;;15.80;5.20;;;;;;;;;;5052409;28;20440;-67
2022/06/03 01:46:27;;;;;;;20.33;5.83;;;;;;;;;;5052020;28;20482;-67
2022/06/03 01:49:03;;;;;;;18.03;6.50;;;;;;;;;;5051718;28;20448;-68
2022/06/03 01:51:46;;;;;;;21.27;7.70;;;;;;;;;;5052098;28;20435;-67
2022/06/03 01:54:31;;;;;;;22.57;5.50;;;;;;;;;;5052125;28;20455;-67
2022/06/03 01:57:06;;;;;;;18.93;5.77;;;;;;;;;;5050849;28;20483;-67
2022/06/03 01:59:48;;;;;;;18.03;6.17;;;;;;;;;;5051913;28;20455;-69
2022/06/03 02:02:34;;;;;;;20.10;6.20;;;;;;;;;;5047502;28;20459;-68
2022/06/03 02:05:19;;;;;;;18.40;6.70;;;;;;;;;;5051818;28;20490;-67
2022/06/03 02:07:53;;;;;;;19.73;6.00;;;;;;;;;;5040890;28;20439;-68
2022/06/03 02:10:51;;;;;;;19.07;6.37;;;;;;;;;;5051773;28;20439;-68
2022/06/03 02:13:36;;;;;;;19.83;6.23;;;;;;;;;;5029813;28;20536;-68
2022/06/03 02:16:13;;;;;;;18.13;5.90;;;;;;;;;;5048947;28;20889;-68
2022/06/03 02:18:51;;;;;;;22.20;5.90;;;;;;;;;;5051605;28;20427;-67
2022/06/03 02:21:33;;;;;;;19.10;6.17;;;;;;;;;;5051834;28;20982;-68
2022/06/03 02:24:12;;;;;;;19.00;5.20;;;;;;;;;;5050824;28;20480;-68
2022/06/03 02:27:05;;;;;;;19.40;5.60;;;;;;;;;;5051892;28;20466;-68
2022/06/03 02:32:51;;;;;;;17.50;5.80;;;;;;;;;;5051892;28;20431;-68
2022/06/03 02:35:25;;;;;;;17.00;5.50;;;;;;;;;;5051457;28;20440;-69
2022/06/03 02:38:12;;;;;;;21.73;5.77;;;;;;;;;;5051839;28;20456;-68
2022/06/03 02:40:59;;;;;;;19.87;6.27;;;;;;;;;;5051652;28;20436;-68
2022/06/03 02:43:37;;;;;;;18.30;6.37;;;;;;;;;;5051634;28;20435;-67
2022/06/03 02:46:29;;;;;;;20.93;7.10;;;;;;;;;;5051725;28;20523;-68
2022/06/03 02:49:20;;;;;;;20.37;7.47;;;;;;;;;;5051173;28;20436;-68
2022/06/03 02:52:01;;;;;;;24.80;6.83;;;;;;;;;;5051356;28;20440;-67
2022/06/03 02:54:43;;;;;;;21.80;8.20;;;;;;;;;;5051697;28;20432;-67
2022/06/03 02:57:33;;;;;;;22.23;7.97;;;;;;;;;;5050140;28;21016;-69
2022/06/03 03:00:09;;;;;;;19.97;7.87;;;;;;;;;;5051312;28;20440;-68
2022/06/03 03:02:53;;;;;;;22.97;7.30;;;;;;;;;;5051307;28;20979;-68
2022/06/03 03:05:31;;;;;;;20.17;7.63;;;;;;;;;;5051541;28;20801;-68
2022/06/03 03:08:17;;;;;;;21.70;6.90;;;;;;;;;;5051236;28;20522;-68
2022/06/03 03:11:00;;;;;;;21.33;7.90;;;;;;;;;;5054844;28;20448;-68
2022/06/03 03:13:35;;;;;;;27.33;6.60;;;;;;;;;;5054227;28;20483;-68
2022/06/03 03:16:24;;;;;;;21.27;6.43;;;;;;;;;;5054344;28;20861;-68
2022/06/03 03:18:59;;;;;;;19.90;7.60;;;;;;;;;;5053019;28;20458;-68
2022/06/03 03:21:34;;;;;;;23.93;7.00;;;;;;;;;;5054727;28;20439;-68
2022/06/03 03:24:24;;;;;;;23.37;7.03;;;;;;;;;;5055091;28;20475;-68
2022/06/03 03:26:56;;;;;;;23.23;6.87;;;;;;;;;;5055013;28;20835;-68
2022/06/03 03:29:45;;;;;;;21.20;7.97;;;;;;;;;;5054810;28;20594;-68
2022/06/03 03:32:22;;;;;;;19.70;6.73;;;;;;;;;;5055077;28;20444;-68
2022/06/03 03:35:10;;;;;;;18.87;7.10;;;;;;;;;;5054558;28;20526;-68
2022/06/03 03:38:07;;;;;;;17.93;7.47;;;;;;;;;;5054384;28;20486;-68
2022/06/03 03:40:47;;;;;;;22.23;7.43;;;;;;;;;;5032462;28;20441;-68
2022/06/03 03:43:38;;;;;;;23.30;8.53;;;;;;;;;;5050808;28;20447;-68
2022/06/03 03:46:23;;;;;;;16.33;6.33;;;;;;;;;;5054218;28;20447;-68
2022/06/03 03:49:19;;;;;;;17.17;5.87;;;;;;;;;;5054213;28;20435;-68
2022/06/03 03:52:06;;;;;;;17.23;5.47;;;;;;;;;;5054595;28;20436;-68
2022/06/03 03:54:54;;;;;;;17.23;6.43;;;;;;;;;;5054152;28;20867;-68
2022/06/03 03:57:35;;;;;;;17.27;5.87;;;;;;;;;;5054307;28;20480;-68
2022/06/03 04:00:09;;;;;;;18.10;6.97;;;;;;;;;;5054783;28;20838;-68
2022/06/03 04:02:54;;;;;;;20.13;7.43;;;;;;;;;;5054177;28;20436;-68
2022/06/03 04:05:40;;;;;;;20.50;8.20;;;;;;;;;;5054755;28;20520;-68
2022/06/03 04:08:28;;;;;;;18.77;6.30;;;;;;;;;;5054315;28;20466;-68
2022/06/03 04:11:18;;;;;;;19.53;7.10;;;;;;;;;;5053746;28;20441;-69
2022/06/03 04:13:58;;;;;;;22.00;7.50;;;;;;;;;;5053731;28;20452;-69
2022/06/03 04:16:46;;;;;;;19.43;5.77;;;;;;;;;;5053572;28;20520;-69
2022/06/03 04:19:29;;;;;;;17.60;7.03;;;;;;;;;;5053670;28;20444;-69
2022/06/03 04:22:16;;;;;;;17.27;6.30;;;;;;;;;;5053307;28;20481;-69
2022/06/03 04:25:01;;;;;;;26.80;6.37;;;;;;;;;;5053826;28;20502;-69
2022/06/03 04:27:47;;;;;;;18.20;6.03;;;;;;;;;;5054595;28;20447;-68
2022/06/03 04:30:28;;;;;;;18.40;6.03;;;;;;;;;;5054128;28;20439;-69
2022/06/03 04:33:16;;;;;;;17.30;5.90;;;;;;;;;;5053227;28;20449;-69
2022/06/03 04:36:01;;;;;;;16.23;6.23;;;;;;;;;;5053489;28;20436;-70
2022/06/03 04:38:50;;;;;;;17.13;5.37;;;;;;;;;;5053755;28;20472;-69
2022/06/03 04:41:32;;;;;;;22.33;5.60;;;;;;;;;;5053213;28;20501;-69
2022/06/03 04:44:27;;;;;;;17.53;5.00;;;;;;;;;;5053181;28;20515;-69
2022/06/03 04:47:19;;;;;;;20.70;5.63;;;;;;;;;;5052920;28;20455;-70
2022/06/03 04:50:07;;;;;;;16.37;5.20;;;;;;;;;;5053073;28;20447;-70
2022/06/03 04:52:58;;;;;;;18.87;5.73;;;;;;;;;;5053082;28;20439;-70
2022/06/03 04:56:04;;;;;;;20.40;5.43;;;;;;;;;;5053022;28;20451;-70
2022/06/03 04:58:58;;;;;;;21.83;5.00;;;;;;;;;;5053169;28;20453;-69
2022/06/03 05:01:44;;;;;;;16.60;5.60;;;;;;;;;;5052780;28;20440;-70
2022/06/03 05:04:30;;;;;;;16.00;4.50;;;;;;;;;;5053040;28;20440;-69
2022/06/03 05:07:22;;;;;;;14.60;4.30;;;;;;;;;;5052520;28;20458;-70
2022/06/03 05:10:19;;;;;;;15.60;4.53;;;;;;;;;;5052770;28;20949;-69
2022/06/03 05:13:07;;;;;;;17.20;4.20;;;;;;;;;;5052552;28;20436;-69
2022/06/03 05:15:43;;;;;;;14.30;4.00;;;;;;;;;;5052424;28;20456;-70
2022/06/03 05:18:29;;;;;;;17.20;3.97;;;;;;;;;;5052883;28;20471;-69
2022/06/03 05:21:13;;;;;;;18.40;4.23;;;;;;;;;;5052520;28;20424;-69
2022/06/03 05:23:56;;;;;;;13.67;3.67;;;;;;;;;;5052872;28;20501;-69
2022/06/03 05:26:28;;;;;;;17.47;5.07;;;;;;;;;;5052364;28;20452;-70
2022/06/03 05:29:08;;;;;;;16.93;4.83;;;;;;;;;;5052229;28;20444;-70
2022/06/03 05:31:55;;;;;;;15.77;4.20;;;;;;;;;;5052310;28;20493;-69
2022/06/03 05:34:34;;;;;;;19.03;4.40;;;;;;;;;;5052388;28;20821;-69
2022/06/03 05:37:14;;;;;;;17.47;5.10;;;;;;;;;;5051906;28;20490;-69
2022/06/03 05:39:59;;;;;;;17.27;4.60;;;;;;;;;;5052209;28;20455;-69
2022/06/03 05:42:39;;;;;;;15.73;4.30;;;;;;;;;;5052256;28;20440;-70
2022/06/03 05:45:28;;;;;;;14.80;4.30;;;;;;;;;;5051816;28;20448;-69
2022/06/03 05:47:59;;;;;;;17.90;4.40;;;;;;;;;;5043040;28;20444;-69
2022/06/03 05:50:34;;;;;;;27.63;4.60;;;;;;;;;;5052225;28;20828;-70
2022/06/03 05:53:10;;;;;;;17.57;4.33;;;;;;;;;;5051964;28;20852;-69
2022/06/03 05:55:41;;;;;;;15.93;4.77;;;;;;;;;;5052592;28;20450;-70
2022/06/03 05:58:20;;;;;;;15.60;4.17;;;;;;;;;;5051820;28;20487;-70
2022/06/03 06:00:54;;;;;;;14.60;4.37;;;;;;;;;;5051916;28;20447;-70
2022/06/03 06:03:25;;;;;;;15.20;4.77;;;;;;;;;;5052204;28;20439;-69
2022/06/03 06:05:56;;;;;;;17.30;5.10;;;;;;;;;;5051872;28;20832;-69
2022/06/03 06:08:32;;;;;;;21.77;4.63;;;;;;;;;;5051870;28;20470;-69
2022/06/03 06:11:04;;;;;;;15.93;4.13;;;;;;;;;;5051858;28;20435;-69
2022/06/03 06:13:47;;;;;;;18.17;4.40;;;;;;;;;;5051967;28;20498;-69
2022/06/03 06:16:19;;;;;;;16.70;5.10;;;;;;;;;;5051299;28;20463;-70
2022/06/03 06:18:50;;;;;;;19.00;4.60;;;;;;;;;;5051859;28;20436;-70
2022/06/03 06:21:32;;;;;;;16.93;5.10;;;;;;;;;;5051746;28;20505;-70
2022/06/03 06:24:06;;;;;;;15.60;3.87;;;;;;;;;;5050962;28;20480;-70
2022/06/03 06:26:52;;;;;;;16.90;4.57;;;;;;;;;;5051838;28;20781;-69
2022/06/03 06:29:38;;;;;;;17.00;4.47;;;;;;;;;;5051830;28;20601;-70
2022/06/03 06:32:33;;;;;;;15.30;4.13;;;;;;;;;;5051621;28;20463;-69
2022/06/03 06:35:25;;;;;;;14.60;4.13;;;;;;;;;;5051242;28;20459;-70
2022/06/03 06:38:01;;;;;;;15.97;4.00;;;;;;;;;;5051634;28;21027;-70
2022/06/03 06:40:37;;;;;;;15.30;4.57;;;;;;;;;;5051811;28;20445;-70
2022/06/03 06:43:10;;;;;;;15.77;4.23;;;;;;;;;;5051482;28;20456;-69
2022/06/03 06:45:41;;;;;;;19.03;5.27;;;;;;;;;;5055407;28;20455;-70
2022/06/03 06:48:12;;;;;;;17.03;4.20;;;;;;;;;;5055346;28;20959;-70
2022/06/03 06:50:43;;;;;;;16.03;4.60;;;;;;;;;;5055480;28;20454;-71
2022/06/03 06:53:12;;;;;;;17.10;4.67;;;;;;;;;;5055219;28;20490;-70
2022/06/03 06:55:49;;;;;;;17.10;5.07;;;;;;;;;;5055200;28;20446;-69
2022/06/03 06:58:27;;;;;;;16.83;5.07;;;;;;;;;;5055161;28;21010;-69
2022/06/03 07:00:55;;;;;;;18.33;4.80;;;;;;;;;;5055137;28;20443;-70
2022/06/03 07:03:26;;;;;;;16.20;4.13;;;;;;;;;;5055484;28;20450;-71
2022/06/03 07:05:55;;;;;;;19.93;4.57;;;;;;;;;;5055116;28;20451;-70
2022/06/03 07:08:25;;;;;;;14.93;4.13;;;;;;;;;;5054951;28;20443;-70
2022/06/03 07:10:56;;;;;;;17.20;5.03;;;;;;;;;;5055059;28;20799;-71
2022/06/03 07:13:26;;;;;;;18.53;4.63;;;;;;;;;;5054885;28;20899;-70
2022/06/03 07:16:03;;;;;;;18.63;4.90;;;;;;;;;;5054635;28;20464;-70
2022/06/03 07:21:22;;;;;;;16.10;4.73;;;;;;;;;;5055063;28;20439;-69
2022/06/03 07:23:50;;;;;;;18.67;4.40;;;;;;;;;;5054385;28;20571;-70
2022/06/03 07:26:33;;;;;;;19.80;5.10;;;;;;;;;;5054789;28;20428;-70
2022/06/03 07:29:03;;;;;;;15.20;4.33;;;;;;;;;;5054438;28;20448;-70
2022/06/03 07:31:35;;;;;;;16.33;5.30;;;;;;;;;;5054750;28;20450;-70
2022/06/03 07:34:05;;;;;;;21.20;4.57;;;;;;;;;;5054872;28;20443;-68
2022/06/03 07:36:37;;;;;;;17.70;4.37;;;;;;;;;;5055052;28;20440;-68
2022/06/03 07:39:15;;;;;;;17.73;5.10;;;;;;;;;;5054282;28;20479;-68
2022/06/03 07:41:50;;;;;;;20.87;5.83;;;;;;;;;;5054382;28;20451;-68
2022/06/03 07:44:18;;;;;;;16.27;5.43;;;;;;;;;;5054669;28;20441;-69
2022/06/03 07:46:52;;;;;;;23.23;5.97;;;;;;;;;;5054379;28;20444;-70
2022/06/03 07:49:21;;;;;;;20.30;5.50;;;;;;;;;;5054400;28;20526;-70
2022/06/03 07:51:50;;;;;;;17.30;4.60;;;;;;;;;;5054386;28;20527;-69
2022/06/03 07:54:23;;;;;;;17.67;5.20;;;;;;;;;;5054130;28;20443;-69
2022/06/03 07:57:00;;;;;;;16.50;4.60;;;;;;;;;;5054424;28;20439;-70
2022/06/03 07:59:31;;;;;;;15.87;4.80;;;;;;;;;;5054098;28;20907;-69
2022/06/03 08:02:00;;;;;;;17.87;5.73;;;;;;;;;;5054087;28;20448;-70
2022/06/03 08:04:28;;;;;;;18.53;5.20;;;;;;;;;;5053906;28;20443;-69
2022/06/03 08:12:56;;;;;;;18.40;6.37;;;;;;;;;;4992628;28;20848;-69
2022/06/03 08:15:25;;;;;;;20.40;5.43;;;;;;;;;;5033412;28;20486;-69
2022/06/03 08:17:53;;;;;;;17.87;4.60;;;;;;;;;;5053748;28;20475;-69
2022/06/03 08:20:23;;;;;;;17.40;5.30;;;;;;;;;;5053599;28;20448;-69
2022/06/03 08:22:51;;;;;;;15.93;4.90;;;;;;;;;;5053624;28;20917;-69
2022/06/03 08:25:22;;;;;;;17.77;5.27;;;;;;;;;;5053441;28;20432;-70
2022/06/03 08:27:51;;;;;;;15.60;4.80;;;;;;;;;;5053878;28;20444;-70
2022/06/03 08:30:20;;;;;;;19.30;5.80;;;;;;;;;;5053703;28;20439;-70
2022/06/03 08:32:51;;;;;;;15.30;5.10;;;;;;;;;;5053330;28;20444;-70
2022/06/03 08:35:20;;;;;;;21.00;5.43;;;;;;;;;;5053511;28;20454;-70
2022/06/03 08:37:51;;;;;;;15.60;4.90;;;;;;;;;;5053272;28;21008;-70
2022/06/03 08:40:25;;;;;;;22.20;5.27;;;;;;;;;;5053711;28;20440;-69
2022/06/03 08:43:01;;;;;;;19.13;4.80;;;;;;;;;;5053603;28;20902;-69
2022/06/03 08:45:34;;;;;;;18.10;4.50;;;;;;;;;;5053174;28;20444;-70
2022/06/03 08:48:06;;;;;;;16.47;5.13;;;;;;;;;;5053241;28;20479;-69
2022/06/03 08:50:37;;;;;;;17.70;4.83;;;;;;;;;;5053272;28;20933;-69
2022/06/03 08:53:07;;;;;;;19.50;5.17;;;;;;;;;;5053162;28;20444;-70
2022/06/03 08:55:47;;;;;;;19.20;5.20;;;;;;;;;;5052842;28;20881;-70
2022/06/03 08:58:23;;;;;;;16.80;4.70;;;;;;;;;;5052925;28;20999;-70
2022/06/03 09:00:57;;;;;;;20.00;6.17;;;;;;;;;;5052843;28;20863;-70
2022/06/03 09:03:26;;;;;;;15.67;4.87;;;;;;;;;;5052972;28;20439;-69
2022/06/03 09:05:57;;;;;;;14.90;4.90;;;;;;;;;;5052597;28;20440;-70
2022/06/03 09:08:31;;;;;;;16.70;5.07;;;;;;;;;;5052660;28;20460;-70
2022/06/03 09:11:01;;;;;;;18.60;5.40;;;;;;;;;;5052379;28;20439;-69
2022/06/03 09:13:32;;;;;;;16.83;5.50;;;;;;;;;;5052556;28;20436;-69
2022/06/03 09:16:00;;;;;;;19.57;5.93;;;;;;;;;;5053210;28;20483;-70
2022/06/03 09:18:31;;;;;;;16.80;4.50;;;;;;;;;;5052483;28;20478;-69
2022/06/03 09:21:01;;;;;;;20.73;5.20;;;;;;;;;;5052488;28;20456;-70
2022/06/03 09:23:29;;;;;;;23.17;4.70;;;;;;;;;;5052778;28;20494;-69
2022/06/03 09:25:58;;;;;;;16.63;5.00;;;;;;;;;;5052521;28;20435;-70
2022/06/03 09:28:27;;;;;;;18.80;5.80;;;;;;;;;;5052458;28;20435;-71
2022/06/03 09:30:56;;;;;;;19.97;5.10;;;;;;;;;;5052141;28;20448;-70
2022/06/03 09:33:25;;;;;;;21.97;5.40;;;;;;;;;;5052521;28;20953;-70
2022/06/03 09:35:54;;;;;;;20.47;5.47;;;;;;;;;;5052252;28;20948;-69
2022/06/03 09:38:24;;;;;;;17.70;6.20;;;;;;;;;;5052046;28;20479;-70
2022/06/03 09:40:53;;;;;;;21.83;5.50;;;;;;;;;;5052473;28;20440;-70
2022/06/03 09:43:22;;;;;;;20.10;5.37;;;;;;;;;;5052257;28;20528;-70
2022/06/03 09:45:52;;;;;;;16.67;5.43;;;;;;;;;;5052031;28;20436;-70
2022/06/03 09:48:24;;;;;;;17.70;5.30;;;;;;;;;;5051986;28;20455;-70
2022/06/03 09:50:53;;;;;;;37.47;5.00;;;;;;;;;;5052013;28;20443;-70
2022/06/03 09:53:21;;;;;;;16.67;5.50;;;;;;;;;;5052166;28;20467;-70
2022/06/03 09:55:52;;;;;;;20.00;4.90;;;;;;;;;;5051917;28;20439;-70
2022/06/03 09:58:22;;;;;;;17.73;5.40;;;;;;;;;;5052232;28;20479;-70
2022/06/03 10:00:50;;;;;;;19.60;5.80;;;;;;;;;;5051575;28;20475;-70
2022/06/03 10:03:19;;;;;;;38.63;5.13;;;;;;;;;;5052084;28;20446;-69
2022/06/03 10:05:49;;;;;;;19.27;5.77;;;;;;;;;;5052199;28;20439;-70
2022/06/03 10:08:18;;;;;;;19.00;5.50;;;;;;;;;;5052082;28;20447;-70
2022/06/03 10:13:34;;;;;;;17.27;4.80;;;;;;;;;;5052023;28;20808;-70
2022/06/03 10:16:03;;;;;;;18.83;5.20;;;;;;;;;;5051322;28;20483;-71
2022/06/03 10:18:33;;;;;;;22.10;5.63;;;;;;;;;;5052453;28;20577;-70
2022/06/03 10:21:22;;;;;;;18.97;5.40;;;;;;;;;;5055840;28;20440;-70
2022/06/03 10:23:55;;;;;;;19.30;4.47;;;;;;;;;;5056230;28;20842;-70
2022/06/03 10:26:23;;;;;;;19.50;5.13;;;;;;;;;;5055984;28;20443;-70
2022/06/03 10:28:52;;;;;;;15.30;5.30;;;;;;;;;;5056029;28;20823;-70
2022/06/03 10:31:21;;;;;;;24.87;5.70;;;;;;;;;;5055753;28;20451;-70
2022/06/03 10:33:53;;;;;;;16.93;5.17;;;;;;;;;;5055811;28;20443;-69
2022/06/03 10:36:25;;;;;;;23.20;6.10;;;;;;;;;;5055543;28;20439;-70
2022/06/03 10:38:53;;;;;;;22.70;5.87;;;;;;;;;;5055646;28;20479;-70
2022/06/03 10:41:21;;;;;;;32.63;6.03;;;;;;;;;;5056196;28;20925;-70
2022/06/03 10:43:49;;;;;;;16.73;4.83;;;;;;;;;;5055780;28;20436;-70
2022/06/03 10:46:20;;;;;;;23.60;5.53;;;;;;;;;;5055684;28;20442;-70
2022/06/03 10:48:48;;;;;;;17.63;5.40;;;;;;;;;;5055402;28;20451;-70
2022/06/03 10:51:18;;;;;;;20.20;5.43;;;;;;;;;;5055018;28;20439;-70
2022/06/03 11:02:29;;;;;;;17.83;4.70;;;;;;;;;;5055258;28;20454;-70
2022/06/03 11:05:08;;;;;;;20.30;5.27;;;;;;;;;;5055053;28;20448;-70
2022/06/03 11:07:36;;;;;;;18.17;5.77;;;;;;;;;;5055231;28;20443;-68
2022/06/03 11:10:07;;;;;;;18.93;5.70;;;;;;;;;;5054971;28;20485;-68
2022/06/03 11:12:34;;;;;;;21.77;5.20;;;;;;;;;;5055611;28;20446;-68
2022/06/03 11:15:02;;;;;;;18.13;5.77;;;;;;;;;;5054492;28;20460;-69
2022/06/03 11:17:36;;;;;;;14.87;4.50;;;;;;;;;;5054776;28;20531;-68
2022/06/03 11:20:04;;;;;;;17.70;5.07;;;;;;;;;;5054888;28;20471;-68
2022/06/03 11:22:33;;;;;;;20.67;5.40;;;;;;;;;;5054609;28;20921;-69
2022/06/03 11:25:03;;;;;;;17.60;5.00;;;;;;;;;;5054456;28;20436;-69
2022/06/03 11:27:40;;;;;;;21.47;4.80;;;;;;;;;;5054839;28;20816;-69
2022/06/03 11:30:11;;;;;;;22.70;4.80;;;;;;;;;;5054239;28;21061;-70
2022/06/03 11:32:39;;;;;;;17.93;4.80;;;;;;;;;;5054600;28;20869;-70
2022/06/03 11:35:08;;;;;;;15.93;5.10;;;;;;;;;;5054863;28;20447;-69
2022/06/03 11:37:37;;;;;;;17.10;5.50;;;;;;;;;;5055282;28;20447;-70
2022/06/03 11:40:05;;;;;;;16.97;4.60;;;;;;;;;;5054560;28;20850;-70
2022/06/03 11:42:36;;;;;;;16.23;5.20;;;;;;;;;;5054543;28;20447;-69
2022/06/03 11:48:13;;;;;;;18.30;4.33;;;;;;;;;;5054388;28;20461;-69
2022/06/03 11:50:41;;;;;;;19.77;4.47;;;;;;;;;;5054589;28;20453;-70
2022/06/03 11:53:08;;;;;;;19.33;5.00;;;;;;;;;;5054049;28;20503;-69
2022/06/03 11:55:38;;;;;;;16.60;3.67;;;;;;;;;;5054247;28;20454;-70
2022/06/03 11:58:08;;;;;;;16.67;4.63;;;;;;;;;;5054286;28;20459;-69
2022/06/03 12:00:39;;;;;;;18.40;4.53;;;;;;;;;;5054083;28;20498;-70
2022/06/03 12:03:14;;;;;;;18.57;5.17;;;;;;;;;;5053933;28;20471;-69
2022/06/03 12:05:47;;;;;;;16.50;4.43;;;;;;;;;;5054054;28;20440;-69
2022/06/03 12:08:18;;;;;;;14.87;5.17;;;;;;;;;;5053906;28;20450;-69
2022/06/03 12:10:48;;;;;;;19.40;5.40;;;;;;;;;;5053972;28;20447;-69
2022/06/03 12:13:17;;;;;;;18.07;5.30;;;;;;;;;;5053600;28;20436;-70
2022/06/03 12:15:52;;;;;;;17.13;4.70;;;;;;;;;;5053382;28;20846;-70
2022/06/03 12:18:53;;;;;;;14.50;4.57;;;;;;;;;;5053884;28;20518;-70
2022/06/03 12:21:43;;;;;;;19.20;5.67;;;;;;;;;;5053621;28;20435;-69
2022/06/03 12:24:29;;;;;;;18.87;5.07;;;;;;;;;;5053529;28;20484;-69
2022/06/03 12:27:00;;;;;;;17.23;4.50;;;;;;;;;;5053312;28;20466;-70
2022/06/03 12:29:31;;;;;;;16.80;4.50;;;;;;;;;;5053865;28;20877;-70
2022/06/03 12:32:09;;;;;;;18.90;4.90;;;;;;;;;;5053911;28;20435;-70
2022/06/03 12:34:37;;;;;;;23.93;5.00;;;;;;;;;;5053640;28;20444;-70
2022/06/03 12:37:23;;;;;;;15.90;5.30;;;;;;;;;;5053282;28;20444;-69
2022/06/03 12:39:58;;;;;;;14.40;4.50;;;;;;;;;;5053274;28;20544;-70
2022/06/03 12:42:45;;;;;;;17.67;4.63;;;;;;;;;;5052528;28;20468;-70
2022/06/03 12:45:32;;;;;;;18.67;5.50;;;;;;;;;;5053060;28;20448;-70
2022/06/03 12:48:00;;;;;;;14.67;4.60;;;;;;;;;;5053256;28;20443;-70
2022/06/03 12:50:32;;;;;;;15.03;4.90;;;;;;;;;;5053093;28;20444;-69
2022/06/03 12:53:20;;;;;;;15.80;5.53;;;;;;;;;;5052727;28;20444;-70
2022/06/03 12:55:53;;;;;;;23.07;4.80;;;;;;;;;;5053362;28;20949;-69
2022/06/03 12:58:35;;;;;;;21.00;4.97;;;;;;;;;;5052846;28;20436;-69
2022/06/03 13:01:06;;;;;;;22.33;5.40;;;;;;;;;;5051871;28;20454;-70
2022/06/03 13:03:41;;;;;;;16.97;5.07;;;;;;;;;;5052937;28;20987;-70
2022/06/03 13:06:09;;;;;;;16.60;5.00;;;;;;;;;;5052881;28;20435;-69
2022/06/03 13:09:34;;;;;;;17.40;5.33;;;;;;;;;;5052726;28;20444;-70
2022/06/03 13:11:34;;;;;;;19.90;4.83;;;;;;;;;;5052873;28;20466;-69
2022/06/03 13:14:16;;;;;;;17.40;5.10;;;;;;;;;;5052988;28;20431;-70
2022/06/03 13:16:46;;;;;;;16.30;3.90;;;;;;;;;;5052628;28;20452;-71
2022/06/03 13:19:32;;;;;;;18.87;5.73;;;;;;;;;;5052312;28;20487;-70
2022/06/03 13:22:07;;;;;;;16.47;4.57;;;;;;;;;;5052420;28;20952;-71
2022/06/03 13:24:36;;;;;;;18.10;4.20;;;;;;;;;;5052340;28;20493;-71
2022/06/03 13:27:07;;;;;;;19.73;5.50;;;;;;;;;;5052386;28;20439;-71
2022/06/03 13:30:02;;;;;;;14.47;3.60;;;;;;;;;;5052269;28;20498;-70
2022/06/03 13:32:56;;;;;;;15.83;4.57;;;;;;;;;;5040134;28;20450;-69
2022/06/03 13:35:27;;;;;;;20.33;5.60;;;;;;;;;;5047173;28;20444;-69
2022/06/03 13:38:09;;;;;;;17.10;5.00;;;;;;;;;;5052179;28;20825;-68
2022/06/03 13:40:37;;;;;;;16.13;3.90;;;;;;;;;;5052416;28;20483;-70
2022/06/03 13:43:06;;;;;;;20.00;4.23;;;;;;;;;;5052040;28;20435;-70
2022/06/03 13:45:46;;;;;;;15.97;4.47;;;;;;;;;;5052586;28;20797;-70
2022/06/03 13:48:18;;;;;;;16.40;4.63;;;;;;;;;;5052075;28;20439;-71
2022/06/03 13:50:47;;;;;;;16.37;4.90;;;;;;;;;;5052278;28;20451;-71
2022/06/03 13:53:23;;;;;;;16.60;4.60;;;;;;;;;;5051622;28;20938;-69
2022/06/03 13:55:53;;;;;;;18.30;4.50;;;;;;;;;;5052297;28;20490;-69
2022/06/03 13:58:24;;;;;;;15.17;3.70;;;;;;;;;;5051876;28;20447;-69
2022/06/03 14:01:03;;;;;;;16.10;4.60;;;;;;;;;;5051809;28;20479;-68
2022/06/03 14:03:34;;;;;;;16.67;4.57;;;;;;;;;;5052177;28;20447;-71
2022/06/03 14:06:07;;;;;;;23.03;4.73;;;;;;;;;;5051869;28;20472;-71
2022/06/03 14:08:37;;;;;;;17.50;4.20;;;;;;;;;;5051879;28;20972;-70
2022/06/03 14:11:09;;;;;;;16.20;4.10;;;;;;;;;;5051785;28;20435;-70
2022/06/03 14:13:38;;;;;;;22.77;3.93;;;;;;;;;;5052625;28;20458;-72
2022/06/03 14:16:08;;;;;;;15.57;4.00;;;;;;;;;;5051695;28;20462;-71
2022/06/03 14:18:50;;;;;;;21.03;4.90;;;;;;;;;;5051811;28;20455;-69
2022/06/03 14:21:20;;;;;;;16.47;4.87;;;;;;;;;;5051665;28;20451;-69
2022/06/03 14:23:48;;;;;;;14.90;4.43;;;;;;;;;;5051628;28;20862;-69
2022/06/03 14:26:19;;;;;;;16.70;4.50;;;;;;;;;;5051895;28;20463;-69
2022/06/03 14:28:51;;;;;;;16.37;4.17;;;;;;;;;;5051996;28;20436;-69
2022/06/03 14:31:26;;;;;;;15.03;4.13;;;;;;;;;;5052141;28;20447;-70
2022/06/03 14:33:55;;;;;;;15.23;4.17;;;;;;;;;;5052157;28;20514;-70
2022/06/03 14:36:26;;;;;;;18.10;5.10;;;;;;;;;;5051488;28;20451;-70
2022/06/03 14:38:57;;;;;;;16.50;4.70;;;;;;;;;;5051332;28;20971;-70
2022/06/03 14:41:29;;;;;;;17.20;4.03;;;;;;;;;;5051944;28;20463;-69
2022/06/03 14:43:57;;;;;;;18.03;4.50;;;;;;;;;;5051477;28;20447;-70
2022/06/03 14:46:29;;;;;;;19.53;3.50;;;;;;;;;;5051402;28;20455;-70
2022/06/03 14:48:58;;;;;;;15.50;3.83;;;;;;;;;;5051366;28;20446;-69
2022/06/03 14:51:33;;;;;;;14.33;3.80;;;;;;;;;;5051416;28;20964;-70
2022/06/03 14:54:03;;;;;;;22.43;4.43;;;;;;;;;;5051486;28;20961;-69
2022/06/03 14:56:33;;;;;;;17.67;4.90;;;;;;;;;;5051386;28;20992;-70
2022/06/03 14:59:03;;;;;;;17.53;5.10;;;;;;;;;;5050915;28;20450;-70
2022/06/03 15:01:40;;;;;;;15.47;4.50;;;;;;;;;;5051945;28;20897;-70
2022/06/03 15:04:10;;;;;;;16.30;4.60;;;;;;;;;;5051743;28;20960;-70
2022/06/03 15:06:41;;;;;;;17.60;3.83;;;;;;;;;;5055439;28;20444;-69
2022/06/03 15:09:12;;;;;;;18.43;3.97;;;;;;;;;;5054776;28;20445;-71
2022/06/03 15:11:43;;;;;;;15.60;3.83;;;;;;;;;;5055013;28;20455;-69
2022/06/03 15:14:12;;;;;;;13.80;3.60;;;;;;;;;;5055021;28;20443;-69
2022/06/03 15:16:48;;;;;;;14.97;4.40;;;;;;;;;;5054963;28;20443;-69
2022/06/03 15:19:16;;;;;;;16.30;4.40;;;;;;;;;;5054704;28;20976;-68
2022/06/03 15:21:45;;;;;;;19.13;5.70;;;;;;;;;;5054834;28;20448;-69
2022/06/03 15:24:12;;;;;;;17.63;4.47;;;;;;;;;;5054916;28;21006;-69
2022/06/03 15:26:43;;;;;;;18.43;4.33;;;;;;;;;;5055226;28;20443;-69
2022/06/03 15:29:12;;;;;;;18.53;5.23;;;;;;;;;;5054550;28;21031;-69
2022/06/03 15:31:40;;;;;;;17.73;4.50;;;;;;;;;;5054829;28;20823;-69
2022/06/03 15:34:08;;;;;;;18.90;5.00;;;;;;;;;;5054800;28;20451;-69
2022/06/03 15:36:41;;;;;;;14.80;4.50;;;;;;;;;;5054431;28;20439;-69
2022/06/03 15:39:18;;;;;;;16.63;5.03;;;;;;;;;;5054527;28;20501;-69
2022/06/03 15:41:48;;;;;;;15.10;4.27;;;;;;;;;;5054592;28;20525;-69
2022/06/03 15:44:28;;;;;;;19.13;4.37;;;;;;;;;;5054777;28;20436;-70
2022/06/03 15:46:56;;;;;;;15.80;4.77;;;;;;;;;;5054034;28;20447;-69
2022/06/03 15:49:26;;;;;;;15.33;3.77;;;;;;;;;;5054324;28;20443;-70